createdAt,value
2018-09-24T00:02:23.284Z,101379
2018-09-24T00:04:52.128Z,101385
2018-09-24T00:07:20.955Z,101390
2018-09-24T00:09:49.806Z,101394
2018-09-24T00:12:18.638Z,101398
2018-09-24T00:14:47.477Z,101402
2018-09-24T00:17:16.294Z,101413
2018-09-24T00:19:45.123Z,101419
2018-09-24T00:22:14.690Z,101432
2018-09-24T00:24:43.525Z,101426
2018-09-24T00:27:12.356Z,101437
2018-09-24T00:29:41.184Z,101439
2018-09-24T00:32:10.624Z,101452
2018-09-24T00:34:39.455Z,101453
2018-09-24T00:37:08.283Z,101463
2018-09-24T00:39:37.860Z,101459
2018-09-24T00:42:06.698Z,101463
2018-09-24T00:44:35.541Z,101473
2018-09-24T00:47:04.364Z,101480
2018-09-24T00:49:33.199Z,101480
2018-09-24T00:52:02.030Z,101476
2018-09-24T00:54:30.854Z,101475
2018-09-24T00:56:59.691Z,101479
2018-09-24T00:59:28.514Z,101476
2018-09-24T01:01:57.352Z,101479
2018-09-24T01:04:26.181Z,101486
2018-09-24T01:06:55.750Z,101488
2018-09-24T01:09:24.573Z,101489
2018-09-24T01:11:53.415Z,101505
2018-09-24T01:14:22.248Z,101502
2018-09-24T01:16:51.094Z,101511
2018-09-24T01:19:19.940Z,101517
2018-09-24T01:21:48.763Z,101522
2018-09-24T01:24:17.589Z,101525
2018-09-24T01:26:46.415Z,101532
2018-09-24T01:29:15.252Z,101530
2018-09-24T01:31:44.094Z,101531
2018-09-24T01:34:12.938Z,101547
2018-09-24T01:36:41.773Z,101554
2018-09-24T01:39:10.590Z,101554
2018-09-24T01:41:39.427Z,101555
2018-09-24T01:44:09.000Z,101562
2018-09-24T01:46:37.827Z,101566
2018-09-24T01:49:07.403Z,101571
2018-09-24T01:51:36.246Z,101584
2018-09-24T01:54:05.078Z,101581
2018-09-24T01:56:33.902Z,101591
2018-09-24T01:59:02.734Z,101576
2018-09-24T02:01:31.563Z,101579
2018-09-24T02:04:01.136Z,101589
2018-09-24T02:06:30.042Z,101596
2018-09-24T02:08:58.864Z,101599
2018-09-24T02:11:27.700Z,101589
2018-09-24T02:13:56.524Z,101599
2018-09-24T02:16:25.356Z,101593
2018-09-24T02:18:54.190Z,101600
2018-09-24T02:21:23.026Z,101598
2018-09-24T02:23:51.864Z,101604
2018-09-24T02:26:20.691Z,101612
2018-09-24T02:28:49.526Z,101607
2018-09-24T02:31:18.358Z,101615
2018-09-24T02:33:47.204Z,101624
2018-09-24T02:36:16.034Z,101625
2018-09-24T02:38:44.866Z,101633
2018-09-24T02:41:13.692Z,101641
2018-09-24T02:43:42.530Z,101634
2018-09-24T02:46:11.423Z,101638
2018-09-24T02:48:40.195Z,101635
2018-09-24T02:51:09.026Z,101640
2018-09-24T02:53:38.644Z,101643
2018-09-24T02:56:07.468Z,101649
2018-09-24T02:58:37.047Z,101656
2018-09-24T03:01:05.908Z,101668
2018-09-24T03:03:34.713Z,101673
2018-09-24T03:06:03.539Z,101678
2018-09-24T03:08:32.378Z,101689
2018-09-24T03:11:01.208Z,101687
2018-09-24T03:13:30.044Z,101679
2018-09-24T03:15:58.881Z,101696
2018-09-24T03:18:27.723Z,101688
2018-09-24T03:20:56.552Z,101692
2018-09-24T03:23:25.382Z,101686
2018-09-24T03:25:54.217Z,101691
2018-09-24T03:28:23.048Z,101711
2018-09-24T03:30:51.895Z,101711
2018-09-24T03:33:20.724Z,101710
2018-09-24T03:35:49.552Z,101720
2018-09-24T03:38:18.376Z,101714
2018-09-24T03:40:47.208Z,101716
2018-09-24T03:43:16.035Z,101717
2018-09-24T03:45:44.875Z,101718
2018-09-24T03:48:13.705Z,101713
2018-09-24T03:50:42.532Z,101725
2018-09-24T03:53:12.109Z,101730
2018-09-24T03:55:40.949Z,101729
2018-09-24T03:58:09.781Z,101743
2018-09-24T04:00:38.606Z,101740
2018-09-24T04:03:08.187Z,101746
2018-09-24T04:05:42.719Z,101761
2018-09-24T04:08:16.997Z,101769
2018-09-24T04:10:51.499Z,101774
2018-09-24T04:13:26.446Z,101779
2018-09-24T04:16:00.775Z,101781
2018-09-24T04:18:35.152Z,101787
2018-09-24T04:21:09.432Z,101781
2018-09-24T04:23:43.747Z,101789
2018-09-24T04:26:18.127Z,101788
2018-09-24T04:28:52.377Z,101795
2018-09-24T04:31:26.721Z,101807
2018-09-24T04:34:01.031Z,101808
2018-09-24T04:36:36.098Z,101813
2018-09-24T04:39:10.462Z,101811
2018-09-24T04:41:44.768Z,101814
2018-09-24T04:44:19.078Z,101818
2018-09-24T04:46:53.422Z,101822
2018-09-24T04:49:27.686Z,101814
2018-09-24T04:52:02.119Z,101823
2018-09-24T04:54:37.102Z,101831
2018-09-24T04:57:11.418Z,101836
2018-09-24T04:59:45.790Z,101850
2018-09-24T05:02:20.091Z,101859
2018-09-24T05:04:54.446Z,101873
2018-09-24T05:07:28.727Z,101871
2018-09-24T05:10:03.030Z,101873
2018-09-24T05:12:38.061Z,101882
2018-09-24T05:15:13.058Z,101879
2018-09-24T05:17:47.384Z,101885
2018-09-24T05:20:21.617Z,101889
2018-09-24T05:22:56.702Z,101890
2018-09-24T05:25:31.154Z,101891
2018-09-24T05:28:05.518Z,101896
2018-09-24T05:30:39.930Z,101900
2018-09-24T05:33:14.185Z,101899
2018-09-24T05:35:48.442Z,101900
2018-09-24T05:38:23.437Z,101910
2018-09-24T05:40:57.732Z,101919
2018-09-24T05:43:31.965Z,101918
2018-09-24T05:46:06.470Z,101925
2018-09-24T05:48:40.766Z,101928
2018-09-24T05:51:15.167Z,101929
2018-09-24T05:53:49.870Z,101933
2018-09-24T05:56:24.177Z,101953
2018-09-24T05:58:58.510Z,101949
2018-09-24T06:01:32.843Z,101952
2018-09-24T06:04:08.022Z,101954
2018-09-24T06:06:42.386Z,101965
2018-09-24T06:09:16.662Z,101961
2018-09-24T06:11:50.954Z,101962
2018-09-24T06:14:25.442Z,101964
2018-09-24T06:16:59.773Z,101973
2018-09-24T06:19:35.034Z,101978
2018-09-24T06:22:09.303Z,101979
2018-09-24T06:24:43.642Z,101979
2018-09-24T06:27:18.639Z,101989
2018-09-24T06:29:52.898Z,101992
2018-09-24T06:32:27.936Z,101997
2018-09-24T06:35:02.176Z,101998
2018-09-24T06:37:36.539Z,102011
2018-09-24T06:40:10.842Z,102011
2018-09-24T06:42:45.190Z,102010
2018-09-24T06:45:19.507Z,102012
2018-09-24T06:47:53.809Z,102010
2018-09-24T06:50:28.140Z,102016
2018-09-24T06:53:02.606Z,102014
2018-09-24T06:55:36.893Z,102021
2018-09-24T06:58:11.904Z,102025
2018-09-24T07:00:46.183Z,102027
2018-09-24T07:03:20.530Z,102037
2018-09-24T07:05:54.865Z,102042
2018-09-24T07:08:29.179Z,102054
2018-09-24T07:11:03.468Z,102047
2018-09-24T07:13:37.916Z,102061
2018-09-24T07:16:12.223Z,102039
2018-09-24T07:18:46.681Z,102068
2018-09-24T07:21:21.035Z,102069
2018-09-24T07:23:55.274Z,102076
2018-09-24T07:26:29.559Z,102088
2018-09-24T07:29:03.988Z,102081
2018-09-24T07:31:38.296Z,102077
2018-09-24T07:34:12.750Z,102085
2018-09-24T07:36:47.238Z,102081
2018-09-24T07:39:21.659Z,102083
2018-09-24T07:41:55.928Z,102090
2018-09-24T07:44:31.146Z,102098
2018-09-24T07:47:05.396Z,102103
2018-09-24T07:49:39.695Z,102103
2018-09-24T07:52:14.007Z,102088
2018-09-24T07:54:48.485Z,102112
2018-09-24T07:57:22.798Z,102115
2018-09-24T07:59:57.123Z,102116
2018-09-24T08:02:31.461Z,102126
2018-09-24T08:05:05.695Z,102134
2018-09-24T08:07:39.993Z,102145
2018-09-24T08:10:14.332Z,102147
2018-09-24T08:12:48.762Z,102151
2018-09-24T08:15:23.069Z,102149
2018-09-24T08:17:57.394Z,102161
2018-09-24T08:20:31.815Z,102163
2018-09-24T08:23:06.142Z,102155
2018-09-24T08:25:40.473Z,102153
2018-09-24T08:28:15.551Z,102155
2018-09-24T08:30:49.884Z,102166
2018-09-24T08:33:24.209Z,102169
2018-09-24T08:35:59.462Z,102173
2018-09-24T08:38:33.839Z,102175
2018-09-24T08:41:08.111Z,102182
2018-09-24T08:43:43.175Z,102192
2018-09-24T08:46:17.496Z,102186
2018-09-24T08:48:51.766Z,102185
2018-09-24T08:51:26.901Z,102190
2018-09-24T08:54:01.134Z,102184
2018-09-24T08:56:35.544Z,102197
2018-09-24T08:59:09.769Z,102196
2018-09-24T09:01:44.217Z,102191
2018-09-24T09:04:18.556Z,102194
2018-09-24T09:06:52.986Z,102191
2018-09-24T09:09:27.327Z,102191
2018-09-24T09:12:01.644Z,102193
2018-09-24T09:14:36.054Z,102186
2018-09-24T09:17:10.511Z,102190
2018-09-24T09:19:44.885Z,102187
2018-09-24T09:22:19.201Z,102187
2018-09-24T09:24:53.525Z,102186
2018-09-24T09:27:27.763Z,102190
2018-09-24T09:30:02.281Z,102193
2018-09-24T09:32:37.385Z,102192
2018-09-24T09:35:11.772Z,102196
2018-09-24T09:37:46.939Z,102194
2018-09-24T09:40:21.252Z,102192
2018-09-24T09:42:55.561Z,102194
2018-09-24T09:45:29.833Z,102189
2018-09-24T09:48:05.050Z,102175
2018-09-24T09:50:39.374Z,102180
2018-09-24T09:53:13.681Z,102185
2018-09-24T09:55:48.119Z,102183
2018-09-24T09:58:23.292Z,102185
2018-09-24T10:00:57.634Z,102191
2018-09-24T10:03:32.101Z,102191
2018-09-24T10:06:07.097Z,102185
2018-09-24T10:08:41.429Z,102190
2018-09-24T10:11:15.759Z,102186
2018-09-24T10:13:50.062Z,102189
2018-09-24T10:16:24.418Z,102195
2018-09-24T10:18:58.696Z,102200
2018-09-24T10:21:33.139Z,102202
2018-09-24T10:24:08.256Z,102202
2018-09-24T10:26:42.601Z,102199
2018-09-24T10:29:16.864Z,102202
2018-09-24T10:31:51.219Z,102210
2018-09-24T10:34:25.531Z,102205
2018-09-24T10:36:59.878Z,102215
2018-09-24T10:39:34.229Z,102206
2018-09-24T10:42:08.479Z,102204
2018-09-24T10:44:43.626Z,102207
2018-09-24T10:47:17.931Z,102209
2018-09-24T10:49:52.182Z,102195
2018-09-24T10:52:26.529Z,102203
2018-09-24T10:55:01.014Z,102200
2018-09-24T10:57:35.318Z,102204
2018-09-24T11:00:09.624Z,102209
2018-09-24T11:02:44.054Z,102205
2018-09-24T11:05:18.319Z,102203
2018-09-24T11:07:52.593Z,102214
2018-09-24T11:10:26.815Z,102212
2018-09-24T11:13:01.855Z,102217
2018-09-24T11:15:36.169Z,102212
2018-09-24T11:18:11.245Z,102207
2018-09-24T11:20:45.474Z,102208
2018-09-24T11:23:19.738Z,102203
2018-09-24T11:25:54.124Z,102206
2018-09-24T11:28:28.428Z,102185
2018-09-24T11:31:02.759Z,102193
2018-09-24T11:33:37.949Z,102200
2018-09-24T11:36:12.418Z,102194
2018-09-24T11:38:46.893Z,102198
2018-09-24T11:41:21.337Z,102187
2018-09-24T11:43:55.813Z,102184
2018-09-24T11:46:30.131Z,102190
2018-09-24T11:49:04.548Z,102186
2018-09-24T11:51:38.844Z,102186
2018-09-24T11:54:13.175Z,102180
2018-09-24T11:56:48.187Z,102186
2018-09-24T11:59:22.501Z,102184
2018-09-24T12:01:56.878Z,102174
2018-09-24T12:04:31.126Z,102181
2018-09-24T12:07:05.390Z,102175
2018-09-24T12:09:39.700Z,102181
2018-09-24T12:12:14.142Z,102175
2018-09-24T12:14:48.542Z,102165
2018-09-24T12:17:22.911Z,102172
2018-09-24T12:19:57.244Z,102171
2018-09-24T12:22:32.420Z,102172
2018-09-24T12:25:06.923Z,102168
2018-09-24T12:27:41.246Z,102166
2018-09-24T12:30:15.696Z,102163
2018-09-24T12:32:50.138Z,102161
2018-09-24T12:35:24.472Z,102154
2018-09-24T12:37:58.701Z,102158
2018-09-24T12:40:32.987Z,102156
2018-09-24T12:43:07.312Z,102147
2018-09-24T12:45:41.658Z,102135
2018-09-24T12:48:16.859Z,102150
2018-09-24T12:50:51.263Z,102151
2018-09-24T12:53:25.479Z,102148
2018-09-24T12:55:59.803Z,102150
2018-09-24T12:58:34.116Z,102147
2018-09-24T13:01:08.479Z,102157
2018-09-24T13:03:42.774Z,102152
2018-09-24T13:06:17.031Z,102132
2018-09-24T13:08:52.153Z,102151
2018-09-24T13:11:26.435Z,102144
2018-09-24T13:14:00.780Z,102149
2018-09-24T13:16:35.114Z,102156
2018-09-24T13:19:09.497Z,102151
2018-09-24T13:21:44.435Z,102148
2018-09-24T13:24:18.707Z,102151
2018-09-24T13:26:53.059Z,102148
2018-09-24T13:29:27.559Z,102151
2018-09-24T13:32:01.817Z,102143
2018-09-24T13:34:36.104Z,102141
2018-09-24T13:37:10.421Z,102140
2018-09-24T13:39:44.859Z,102129
2018-09-24T13:42:19.275Z,102137
2018-09-24T13:44:53.676Z,102137
2018-09-24T13:47:27.981Z,102141
2018-09-24T13:50:02.312Z,102137
2018-09-24T13:52:36.823Z,102142
2018-09-24T13:55:11.307Z,102133
2018-09-24T13:57:46.319Z,102121
2018-09-24T14:00:21.472Z,102130
2018-09-24T14:02:55.807Z,102118
2018-09-24T14:05:30.115Z,102122
2018-09-24T14:08:05.296Z,102130
2018-09-24T14:10:39.539Z,102121
2018-09-24T14:13:13.823Z,102115
2018-09-24T14:15:48.137Z,102110
2018-09-24T14:18:22.453Z,102113
2018-09-24T14:20:56.750Z,102110
2018-09-24T14:23:31.242Z,102114
2018-09-24T14:26:05.727Z,102120
2018-09-24T14:28:40.131Z,102119
2018-09-24T14:31:14.623Z,102121
2018-09-24T14:33:49.667Z,102112
2018-09-24T14:36:23.979Z,102121
2018-09-24T14:38:58.294Z,102118
2018-09-24T14:41:33.402Z,102113
2018-09-24T14:44:07.704Z,102116
2018-09-24T14:46:42.192Z,102114
2018-09-24T14:49:16.619Z,102114
2018-09-24T14:51:50.940Z,102110
2018-09-24T14:54:25.250Z,102108
2018-09-24T14:56:59.510Z,102110
2018-09-24T14:59:33.891Z,102121
2018-09-24T15:02:08.320Z,102111
2018-09-24T15:04:42.768Z,102103
2018-09-24T15:07:17.222Z,102106
2018-09-24T15:09:51.528Z,102113
2018-09-24T15:12:26.759Z,102105
2018-09-24T15:15:01.107Z,102110
2018-09-24T15:17:35.405Z,102104
2018-09-24T15:20:10.509Z,102112
2018-09-24T15:22:44.816Z,102104
2018-09-24T15:25:19.043Z,102109
2018-09-24T15:27:53.322Z,102112
2018-09-24T15:30:27.792Z,102111
2018-09-24T15:33:02.082Z,102116
2018-09-24T15:35:36.422Z,102118
2018-09-24T15:38:10.727Z,102125
2018-09-24T15:40:45.094Z,102121
2018-09-24T15:43:19.368Z,102117
2018-09-24T15:45:53.865Z,102122
2018-09-24T15:48:28.132Z,102120
2018-09-24T15:51:02.427Z,102117
2018-09-24T15:53:36.769Z,102131
2018-09-24T15:56:11.054Z,102110
2018-09-24T15:58:45.486Z,102122
2018-09-24T16:01:19.769Z,102113
2018-09-24T16:03:54.040Z,102122
2018-09-24T16:06:29.132Z,102114
2018-09-24T16:09:03.614Z,102117
2018-09-24T16:11:37.935Z,102116
2018-09-24T16:14:12.432Z,102107
2018-09-24T16:16:47.701Z,102117
2018-09-24T16:19:22.071Z,102122
2018-09-24T16:21:57.324Z,102127
2018-09-24T16:24:31.879Z,102130
2018-09-24T16:27:06.283Z,102129
2018-09-24T16:29:40.557Z,102120
2018-09-24T16:32:15.067Z,102116
2018-09-24T16:34:49.549Z,102129
2018-09-24T16:37:23.947Z,102132
2018-09-24T16:39:58.261Z,102134
2018-09-24T16:42:32.531Z,102136
2018-09-24T16:45:06.951Z,102136
2018-09-24T16:47:41.437Z,102140
2018-09-24T16:50:15.742Z,102141
2018-09-24T16:52:50.853Z,102146
2018-09-24T16:55:25.327Z,102165
2018-09-24T16:57:59.791Z,102152
2018-09-24T17:00:33.908Z,102150
2018-09-24T17:03:08.227Z,102160
2018-09-24T17:05:42.736Z,102158
2018-09-24T17:08:17.149Z,102159
2018-09-24T17:10:51.507Z,102157
2018-09-24T17:13:25.758Z,102166
2018-09-24T17:16:00.099Z,102160
2018-09-24T17:18:34.563Z,102167
2018-09-24T17:21:09.638Z,102175
2018-09-24T17:23:43.938Z,102165
2018-09-24T17:26:18.283Z,102173
2018-09-24T17:28:52.547Z,102180
2018-09-24T17:31:27.548Z,102183
2018-09-24T17:34:02.006Z,102183
2018-09-24T17:36:36.312Z,102186
2018-09-24T17:39:11.346Z,102191
2018-09-24T17:41:46.566Z,102188
2018-09-24T17:44:21.736Z,102197
2018-09-24T17:46:56.136Z,102196
2018-09-24T17:49:30.615Z,102204
2018-09-24T17:52:04.928Z,102205
2018-09-24T17:54:39.248Z,102208
2018-09-24T17:57:13.583Z,102219
2018-09-24T17:59:47.922Z,102220
2018-09-24T18:02:22.321Z,102222
2018-09-24T18:04:56.776Z,102226
2018-09-24T18:07:31.196Z,102232
2018-09-24T18:10:05.478Z,102230
2018-09-24T18:12:39.755Z,102229
2018-09-24T18:15:14.203Z,102239
2018-09-24T18:17:48.540Z,102244
2018-09-24T18:20:22.901Z,102244
2018-09-24T18:22:57.318Z,102248
2018-09-24T18:25:31.628Z,102249
2018-09-24T18:28:05.952Z,102259
2018-09-24T18:30:41.042Z,102258
2018-09-24T18:33:15.347Z,102261
2018-09-24T18:35:49.661Z,102270
2018-09-24T18:38:24.013Z,102276
2018-09-24T18:40:58.316Z,102284
2018-09-24T18:43:32.765Z,102282
2018-09-24T18:46:07.779Z,102284
2018-09-24T18:48:42.023Z,102290
2018-09-24T18:51:17.304Z,102288
2018-09-24T18:53:51.719Z,102292
2018-09-24T18:56:26.184Z,102296
2018-09-24T18:59:00.704Z,102303
2018-09-24T19:01:35.194Z,102313
2018-09-24T19:04:09.501Z,102302
2018-09-24T19:06:43.741Z,102305
2018-09-24T19:09:18.084Z,102302
2018-09-24T19:11:52.635Z,102308
2018-09-24T19:14:26.906Z,102314
2018-09-24T19:17:01.233Z,102321
2018-09-24T19:19:35.588Z,102326
2018-09-24T19:22:09.899Z,102320
2018-09-24T19:24:45.091Z,102321
2018-09-24T19:27:19.498Z,102325
2018-09-24T19:29:53.722Z,102332
2018-09-24T19:32:27.975Z,102337
2018-09-24T19:35:02.437Z,102337
2018-09-24T19:37:36.954Z,102338
2018-09-24T19:40:11.451Z,102337
2018-09-24T19:42:46.577Z,102339
2018-09-24T19:45:21.692Z,102351
2018-09-24T19:47:56.122Z,102351
2018-09-24T19:50:31.278Z,102350
2018-09-24T19:53:06.416Z,102355
2018-09-24T19:55:41.613Z,102351
2018-09-24T19:58:16.079Z,102350
2018-09-24T20:00:51.075Z,102356
2018-09-24T20:03:37.923Z,102363
2018-09-24T20:06:12.598Z,102363
2018-09-24T20:08:46.967Z,102363
2018-09-24T20:11:21.457Z,102364
2018-09-24T20:13:55.813Z,102369
2018-09-24T20:16:30.224Z,102361
2018-09-24T20:19:04.696Z,102375
2018-09-24T20:21:39.182Z,102372
2018-09-24T20:24:13.468Z,102377
2018-09-24T20:26:47.715Z,102367
2018-09-24T20:29:22.229Z,102376
2018-09-24T20:31:56.651Z,102374
2018-09-24T20:34:30.993Z,102370
2018-09-24T20:37:05.345Z,102377
2018-09-24T20:39:39.684Z,102377
2018-09-24T20:42:14.827Z,102384
2018-09-24T20:44:49.987Z,102390
2018-09-24T20:47:24.271Z,102390
2018-09-24T20:49:59.475Z,102388
2018-09-24T20:52:46.535Z,102386
2018-09-24T20:55:20.888Z,102388
2018-09-24T20:57:55.354Z,102390
2018-09-24T21:00:29.711Z,102392
2018-09-24T21:03:04.119Z,102382
2018-09-24T21:05:38.476Z,102393
2018-09-24T21:08:12.769Z,102392
2018-09-24T21:10:47.277Z,102400
2018-09-24T21:13:21.596Z,102397
2018-09-24T21:15:55.894Z,102397
2018-09-24T21:18:30.229Z,102408
2018-09-24T21:21:05.327Z,102405
2018-09-24T21:23:39.622Z,102398
2018-09-24T21:26:14.073Z,102399
2018-09-24T21:28:48.399Z,102408
2018-09-24T21:31:22.871Z,102402
2018-09-24T21:33:57.159Z,102407
2018-09-24T21:36:31.521Z,102410
2018-09-24T21:39:05.815Z,102416
2018-09-24T21:41:40.187Z,102409
2018-09-24T21:44:14.488Z,102409
2018-09-24T21:46:48.799Z,102408
2018-09-24T21:49:23.108Z,102419
2018-09-24T21:51:57.430Z,102419
2018-09-24T21:54:32.099Z,102413
2018-09-24T21:57:06.313Z,102421
2018-09-24T21:59:41.419Z,102430
2018-09-24T22:02:15.875Z,102429
2018-09-24T22:04:50.166Z,102422
2018-09-24T22:07:24.474Z,102425
2018-09-24T22:09:58.942Z,102418
2018-09-24T22:12:33.388Z,102427
2018-09-24T22:15:07.756Z,102434
2018-09-24T22:17:42.062Z,102430
2018-09-24T22:20:16.484Z,102438
2018-09-24T22:22:51.546Z,102433
2018-09-24T22:25:25.808Z,102435
2018-09-24T22:28:00.051Z,102443
2018-09-24T22:30:34.620Z,102437
2018-09-24T22:33:08.984Z,102445
2018-09-24T22:35:43.417Z,102443
2018-09-24T22:38:17.725Z,102434
2018-09-24T22:40:52.065Z,102478
2018-09-24T22:43:27.158Z,102439
2018-09-24T22:46:01.427Z,102440
2018-09-24T22:48:35.779Z,102441
2018-09-24T22:51:10.111Z,102441
2018-09-24T22:53:44.380Z,102448
2018-09-24T22:56:18.861Z,102442
2018-09-24T22:58:53.338Z,102438
2018-09-24T23:01:27.707Z,102438
2018-09-24T23:04:02.063Z,102446
2018-09-24T23:06:36.340Z,102448
2018-09-24T23:09:10.602Z,102462
2018-09-24T23:11:44.955Z,102457
2018-09-24T23:14:19.408Z,102452
2018-09-24T23:16:54.499Z,102461
2018-09-24T23:19:28.930Z,102467
2018-09-24T23:22:03.245Z,102462
2018-09-24T23:24:37.554Z,102451
2018-09-24T23:27:11.881Z,102448
2018-09-24T23:29:46.222Z,102453
2018-09-24T23:32:21.413Z,102448
2018-09-24T23:34:55.875Z,102460
2018-09-24T23:37:30.148Z,102460
2018-09-24T23:40:04.549Z,102462
2018-09-24T23:42:38.839Z,102468
2018-09-24T23:45:13.168Z,102479
2018-09-24T23:47:48.183Z,102478
2018-09-24T23:50:23.230Z,102471
2018-09-24T23:52:57.642Z,102479
2018-09-24T23:55:31.929Z,102482
2018-09-24T23:58:06.256Z,102472
